Time;durP1;ratioP1;P1;durP2;ratioP2;P2;SDS_P1;SDS_P2;PMS_P1;PMS_P2;Temp;Humidity;BMP_temperature;BMP_pressure;BME280_temperature;BME280_humidity;BME280_pressure;Samples;Min_cycle;Max_cycle;Signal;HPM_P1;HPM_P2
2023/01/03 00:01:50;;;;;;;21.98;13.90;;;;;;;8.99;100.00;99594.47;5059227;28;20028;-60
2023/01/03 00:04:16;;;;;;;20.95;14.68;;;;;;;9.01;100.00;99592.56;5057481;28;20389;-60
2023/01/03 00:06:46;;;;;;;23.08;15.45;;;;;;;9.04;100.00;99594.97;5041916;28;20502;-61
2023/01/03 00:09:15;;;;;;;24.45;14.57;;;;;;;8.98;100.00;99586.78;5042369;28;20025;-58
2023/01/03 00:14:32;;;;;;;21.90;14.07;;;;;;;9.09;100.00;99586.00;5048349;28;20714;-60
2023/01/03 00:17:00;;;;;;;20.38;15.45;;;;;;;9.11;100.00;99589.31;5054401;28;20056;-61
2023/01/03 00:19:29;;;;;;;18.92;13.93;;;;;;;9.08;100.00;99582.59;5025766;28;20033;-58
2023/01/03 00:21:55;;;;;;;19.25;13.15;;;;;;;9.18;100.00;99590.53;5042513;28;20039;-59
2023/01/03 00:24:21;;;;;;;20.50;14.15;;;;;;;9.16;100.00;99587.22;5042570;28;20028;-62
2023/01/03 00:26:46;;;;;;;20.02;13.68;;;;;;;9.17;100.00;99592.31;5048964;28;20769;-60
2023/01/03 00:29:13;;;;;;;21.05;14.05;;;;;;;9.21;100.00;99592.91;5050614;28;20043;-61
2023/01/03 00:31:39;;;;;;;20.25;13.48;;;;;;;9.22;100.00;99591.97;5029181;28;20092;-61
2023/01/03 00:34:05;;;;;;;19.15;13.40;;;;;;;9.18;100.00;99585.34;5046506;28;21676;-59
2023/01/03 00:36:30;;;;;;;20.05;14.07;;;;;;;9.22;100.00;99581.59;5043163;28;20032;-62
2023/01/03 00:38:57;;;;;;;19.02;13.48;;;;;;;9.19;100.00;99585.22;5030319;28;20562;-62
2023/01/03 00:41:22;;;;;;;18.13;13.13;;;;;;;9.21;100.00;99587.72;5027409;28;20117;-60
2023/01/03 00:43:49;;;;;;;20.30;14.10;;;;;;;9.18;100.00;99581.00;5042496;28;20028;-63
2023/01/03 00:46:15;;;;;;;19.60;13.73;;;;;;;9.22;100.00;99579.00;5041509;28;20459;-60
2023/01/03 00:48:41;;;;;;;19.02;12.80;;;;;;;9.25;100.00;99589.16;5037369;28;20391;-60
2023/01/03 00:51:13;;;;;;;18.90;13.13;;;;;;;9.21;100.00;99583.34;5047987;28;20029;-60
2023/01/03 00:53:38;;;;;;;17.52;12.88;;;;;;;8.99;100.00;99547.75;5026035;28;20031;-61
2023/01/03 00:56:11;;;;;;;19.40;13.38;;;;;;;9.20;100.00;99592.09;5043771;28;20028;-62
2023/01/03 00:58:37;;;;;;;19.77;13.65;;;;;;;9.17;100.00;99573.31;5029048;28;20163;-62
2023/01/03 01:01:15;;;;;;;18.98;13.27;;;;;;;8.96;100.00;99539.38;5046960;28;20039;-63
2023/01/03 01:03:44;;;;;;;17.92;12.40;;;;;;;9.27;100.00;99579.47;5024405;28;20119;-65
2023/01/03 01:06:25;;;;;;;21.20;13.27;;;;;;;9.06;100.00;99542.97;5038381;28;20449;-61
2023/01/03 01:08:52;;;;;;;19.17;12.45;;;;;;;9.27;100.00;99578.66;5063559;28;20077;-63
2023/01/03 01:11:18;;;;;;;18.40;12.63;;;;;;;9.22;100.00;99576.41;5059449;28;20467;-59
2023/01/03 01:13:45;;;;;;;17.70;12.05;;;;;;;9.24;100.00;99577.94;5058893;28;20032;-64
2023/01/03 01:16:17;;;;;;;17.80;12.63;;;;;;;9.23;100.00;99578.06;5056086;28;20133;-61
2023/01/03 01:18:45;;;;;;;18.45;12.65;;;;;;;9.10;100.00;99578.13;5024337;28;20029;-61
2023/01/03 01:21:13;;;;;;;17.88;12.63;;;;;;;9.17;100.00;99581.09;5026564;28;20633;-63
2023/01/03 01:23:40;;;;;;;18.92;12.88;;;;;;;9.22;100.00;99577.22;5030574;28;20123;-59
2023/01/03 01:26:08;;;;;;;18.35;12.60;;;;;;;9.01;100.00;99545.88;5041959;28;20131;-59
2023/01/03 01:28:34;;;;;;;17.70;12.85;;;;;;;9.20;100.00;99583.50;5041974;28;20114;-59
2023/01/03 01:31:01;;;;;;;18.13;12.35;;;;;;;9.20;100.00;99586.09;5042809;28;20667;-63
2023/01/03 01:33:27;;;;;;;16.73;11.35;;;;;;;9.16;100.00;99589.81;5039275;28;20175;-60
2023/01/03 01:35:52;;;;;;;17.73;12.25;;;;;;;9.12;100.00;99585.78;5041933;28;20819;-59
2023/01/03 01:38:18;;;;;;;17.00;12.45;;;;;;;9.01;100.00;99584.78;5041905;28;20476;-65
2023/01/03 01:40:44;;;;;;;18.27;12.88;;;;;;;9.00;100.00;99582.34;5019189;28;20161;-60
2023/01/03 01:46:14;;;;;;;16.85;12.00;;;;;;;9.08;100.00;99587.78;5046061;28;20390;-60
2023/01/03 01:48:39;;;;;;;17.87;12.13;;;;;;;8.73;100.00;99541.88;5060427;28;20114;-59
2023/01/03 01:51:07;;;;;;;17.77;12.65;;;;;;;8.94;100.00;99582.75;5046675;28;20345;-60
2023/01/03 01:53:34;;;;;;;19.10;12.90;;;;;;;8.98;100.00;99585.03;5044096;28;20044;-61
2023/01/03 01:56:09;;;;;;;17.58;12.65;;;;;;;8.94;100.00;99583.56;5030653;28;20173;-62
2023/01/03 01:58:43;;;;;;;17.25;12.13;;;;;;;8.92;100.00;99582.88;5040531;28;20108;-58
2023/01/03 02:01:11;;;;;;;17.98;12.52;;;;;;;8.88;100.00;99572.84;5046024;28;20067;-60
2023/01/03 02:03:37;;;;;;;18.10;12.33;;;;;;;8.48;100.00;99506.50;5033068;28;20040;-61
2023/01/03 02:06:05;;;;;;;18.05;12.77;;;;;;;8.85;100.00;99561.75;5037720;28;20422;-60
2023/01/03 02:08:30;;;;;;;18.98;13.00;;;;;;;8.90;100.00;99568.38;5045318;28;20039;-61
2023/01/03 02:11:14;;;;;;;17.85;12.63;;;;;;;8.93;100.00;99576.75;5024995;28;20040;-60
2023/01/03 02:13:51;;;;;;;18.25;12.90;;;;;;;8.95;100.00;99584.44;5045280;28;20032;-59
2023/01/03 02:16:35;;;;;;;18.35;12.23;;;;;;;8.91;100.00;99576.03;5057960;28;20060;-61
2023/01/03 02:19:45;;;;;;;16.52;11.73;;;;;;;8.99;100.00;99583.25;5061160;28;20048;-61
2023/01/03 02:22:28;;;;;;;;;;;;;;;9.02;100.00;99576.09;5007389;28;20069;-58
2023/01/03 02:25:15;;;;;;;15.68;10.88;;;;;;;9.06;100.00;99570.69;5046217;28;19923;-58
2023/01/03 02:28:10;;;;;;;16.98;11.40;;;;;;;9.05;100.00;99575.03;5055909;28;20037;-63
2023/01/03 02:30:49;;;;;;;17.77;11.85;;;;;;;9.10;100.00;99569.50;5045146;28;20387;-59
2023/01/03 02:33:52;;;;;;;18.55;12.30;;;;;;;9.12;100.00;99567.63;5048281;28;20093;-59
2023/01/03 02:36:36;;;;;;;17.23;11.45;;;;;;;9.10;100.00;99565.16;5045579;28;20040;-58
2023/01/03 02:39:07;;;;;;;17.13;11.52;;;;;;;9.11;100.00;99568.56;5068138;28;20024;-59
2023/01/03 02:45:27;;;;;;;18.00;12.15;;;;;;;8.87;100.00;99568.56;5041364;28;20510;-60
2023/01/03 02:48:09;;;;;;;17.85;12.70;;;;;;;8.85;100.00;99566.94;5032038;28;20055;-60
2023/01/03 02:50:41;;;;;;;18.08;11.90;;;;;;;8.90;100.00;99566.59;5050749;28;20036;-60
2023/01/03 02:53:08;;;;;;;18.20;11.70;;;;;;;8.91;100.00;99572.59;5045928;28;20039;-59
2023/01/03 02:55:35;;;;;;;16.38;11.65;;;;;;;8.98;100.00;99571.22;5038610;28;20447;-58
2023/01/03 02:58:04;;;;;;;16.92;11.52;;;;;;;8.97;100.00;99569.59;5043250;28;20024;-59
2023/01/03 03:00:31;;;;;;;16.75;12.13;;;;;;;8.99;100.00;99563.31;5062665;28;20032;-59
2023/01/03 03:03:05;;;;;;;16.58;11.43;;;;;;;9.02;100.00;99568.31;5044963;28;20024;-60
2023/01/03 03:05:41;;;;;;;14.57;10.50;;;;;;;9.02;100.00;99563.13;5039546;28;20564;-63
2023/01/03 03:08:07;;;;;;;15.65;11.35;;;;;;;9.03;100.00;99572.56;5033605;28;20656;-59
2023/01/03 03:13:40;;;;;;;17.42;11.13;;;;;;;9.04;100.00;99566.44;5066039;28;20058;-59
2023/01/03 03:25:23;;;;;;;20.45;13.90;;;;;;;8.91;100.00;99557.88;5048604;28;20094;-61
2023/01/03 03:30:38;;;;;;;18.63;13.18;;;;;;;8.88;100.00;99545.13;5049865;28;20043;-61
2023/01/03 03:33:05;;;;;;;20.42;14.35;;;;;;;8.94;100.00;99557.63;5044052;28;20037;-61
2023/01/03 03:35:41;;;;;;;19.63;13.02;;;;;;;8.98;100.00;99556.50;5043804;28;20261;-59
2023/01/03 03:38:07;;;;;;;20.50;14.52;;;;;;;8.95;100.00;99550.72;5043485;28;20044;-59
2023/01/03 03:46:15;;;;;;;21.00;13.88;;;;;;;9.00;100.00;99553.81;5042605;28;20290;-58
2023/01/03 03:51:33;;;;;;;16.20;11.43;;;;;;;9.01;100.00;99542.47;5050107;28;20378;-58
2023/01/03 03:54:05;;;;;;;19.88;13.57;;;;;;;9.01;100.00;99545.06;5039358;28;20054;-59
2023/01/03 03:56:31;;;;;;;17.95;12.13;;;;;;;9.02;100.00;99542.38;5042757;28;20052;-59
2023/01/03 03:59:01;;;;;;;18.65;13.20;;;;;;;9.03;100.00;99551.81;5041651;28;20490;-62
2023/01/03 04:01:28;;;;;;;19.30;13.38;;;;;;;9.04;100.00;99553.44;5031251;28;20036;-59
2023/01/03 04:03:56;;;;;;;21.25;13.20;;;;;;;8.82;100.00;99512.69;5045180;28;20050;-58
2023/01/03 04:06:24;;;;;;;19.30;13.23;;;;;;;9.06;100.00;99544.75;5045797;28;20130;-58
2023/01/03 04:08:50;;;;;;;18.00;12.52;;;;;;;9.06;100.00;99552.53;5022103;28;20033;-57
2023/01/03 04:11:15;;;;;;;16.13;12.23;;;;;;;8.96;100.00;99540.22;5059680;28;20033;-60
2023/01/03 04:13:40;;;;;;;17.63;11.88;;;;;;;8.81;100.00;99508.44;5044026;28;20032;-60
2023/01/03 04:16:06;;;;;;;17.25;11.50;;;;;;;9.07;100.00;99554.16;5060797;28;20036;-57
2023/01/03 04:18:32;;;;;;;16.70;11.32;;;;;;;9.11;100.00;99545.22;5042601;28;20107;-58
2023/01/03 04:20:57;;;;;;;18.15;12.13;;;;;;;9.08;100.00;99540.25;5057080;28;20062;-61
2023/01/03 04:23:23;;;;;;;18.27;12.35;;;;;;;8.77;100.00;99519.97;5030643;28;20146;-60
2023/01/03 04:25:49;;;;;;;17.83;11.60;;;;;;;8.93;100.00;99545.63;5048714;28;20040;-61
2023/01/03 04:28:15;;;;;;;15.93;11.70;;;;;;;8.71;100.00;99510.06;5029181;28;20112;-62
2023/01/03 04:30:41;;;;;;;17.35;12.13;;;;;;;9.01;100.00;99547.66;5039798;28;20060;-60
2023/01/03 04:33:06;;;;;;;16.92;12.05;;;;;;;9.01;100.00;99555.44;5045546;28;20063;-58
2023/01/03 04:35:32;;;;;;;16.50;12.35;;;;;;;9.02;100.00;99544.13;5045717;28;20029;-59
2023/01/03 04:37:58;;;;;;;17.80;12.18;;;;;;;8.78;100.00;99513.00;5059701;28;20035;-60
2023/01/03 04:40:23;;;;;;;17.45;12.52;;;;;;;9.09;100.00;99553.13;5068368;28;20094;-62
2023/01/03 04:45:34;;;;;;;16.60;11.75;;;;;;;8.96;100.00;99548.00;5053654;28;20043;-59
2023/01/03 04:47:59;;;;;;;14.98;11.35;;;;;;;8.80;100.00;99543.09;5061624;28;20020;-61
2023/01/03 04:50:25;;;;;;;18.27;12.45;;;;;;;8.87;100.00;99553.88;5064436;28;20086;-58
2023/01/03 04:52:50;;;;;;;16.95;11.43;;;;;;;8.07;100.00;99417.81;5046905;28;20039;-59
2023/01/03 04:55:16;;;;;;;15.07;11.50;;;;;;;8.99;100.00;99558.13;5028639;28;20035;-59
2023/01/03 04:57:41;;;;;;;16.60;11.73;;;;;;;9.01;100.00;99558.84;5070082;28;20105;-58
2023/01/03 05:00:07;;;;;;;16.40;11.85;;;;;;;9.00;100.00;99548.63;5050347;28;20040;-61
2023/01/03 05:02:33;;;;;;;16.88;11.50;;;;;;;8.79;100.00;99519.84;5063181;28;20024;-58
2023/01/03 05:04:59;;;;;;;15.88;11.27;;;;;;;9.03;100.00;99557.00;5027391;28;20021;-58
2023/01/03 05:07:26;;;;;;;16.85;11.57;;;;;;;8.94;100.00;99542.06;5061864;28;20052;-60
2023/01/03 05:09:52;;;;;;;15.52;11.43;;;;;;;9.01;100.00;99564.03;5021102;28;20791;-58
2023/01/03 05:12:18;;;;;;;15.43;11.43;;;;;;;8.96;100.00;99568.75;5050067;28;20028;-62
2023/01/03 05:14:43;;;;;;;16.17;12.13;;;;;;;8.96;100.00;99563.56;5043332;28;20055;-61
2023/01/03 05:17:09;;;;;;;15.55;11.70;;;;;;;9.00;100.00;99570.19;5041820;28;20111;-60
2023/01/03 05:25:48;;;;;;;15.45;11.50;;;;;;;9.03;100.00;99567.38;5058768;28;20033;-58
2023/01/03 05:27:48;;;;;;;14.38;10.57;;;;;;;8.88;100.00;99533.94;5045555;28;20079;-62
2023/01/03 05:30:13;;;;;;;16.20;11.88;;;;;;;9.11;100.00;99579.78;5038509;28;20495;-59
2023/01/03 05:32:39;;;;;;;13.82;11.32;;;;;;;9.06;100.00;99574.09;5027125;28;20036;-62
2023/01/03 05:35:05;;;;;;;15.73;11.35;;;;;;;9.09;100.00;99579.06;5045466;28;20044;-60
2023/01/03 05:37:30;;;;;;;15.68;10.88;;;;;;;9.11;100.00;99579.78;5044262;28;20024;-59
2023/01/03 05:39:55;;;;;;;15.90;11.20;;;;;;;9.15;100.00;99585.59;5044532;28;20063;-59
2023/01/03 05:42:21;;;;;;;18.20;11.95;;;;;;;8.96;100.00;99550.59;5045546;28;20068;-63
2023/01/03 05:44:46;;;;;;;14.77;10.40;;;;;;;9.16;100.00;99582.03;5040403;28;20063;-63
2023/01/03 05:47:12;;;;;;;15.43;11.35;;;;;;;9.17;100.00;99581.91;5044714;28;20648;-59
2023/01/03 05:49:37;;;;;;;14.98;10.55;;;;;;;9.20;100.00;99589.50;5028461;28;20060;-58
2023/01/03 05:52:03;;;;;;;14.98;10.73;;;;;;;8.99;100.00;99555.53;5038454;28;20459;-58
2023/01/03 05:54:28;;;;;;;13.82;10.63;;;;;;;9.15;100.00;99591.59;5040565;28;20091;-59
2023/01/03 05:56:54;;;;;;;13.60;10.27;;;;;;;9.06;100.00;99565.50;5062765;28;20028;-61
2023/01/03 05:59:21;;;;;;;13.60;10.52;;;;;;;8.91;100.00;99546.66;5060885;28;20082;-60
2023/01/03 06:01:47;;;;;;;15.13;10.73;;;;;;;9.14;100.00;99592.53;5044444;28;20090;-60
2023/01/03 06:04:13;;;;;;;17.35;11.05;;;;;;;9.06;100.00;99604.41;5045211;28;20036;-59
2023/01/03 06:06:38;;;;;;;15.23;11.18;;;;;;;8.97;100.00;99606.72;5029179;28;20075;-60
2023/01/03 06:09:04;;;;;;;15.32;11.52;;;;;;;8.97;100.00;99600.72;5050751;28;20032;-58
2023/01/03 06:11:29;;;;;;;13.57;10.70;;;;;;;8.91;100.00;99604.56;5048876;28;20032;-58
2023/01/03 06:13:55;;;;;;;15.13;10.60;;;;;;;8.67;100.00;99560.47;5068536;28;20032;-58
2023/01/03 06:19:06;;;;;;;15.23;11.23;;;;;;;9.00;100.00;99605.69;5065510;28;20067;-62
2023/01/03 06:21:31;;;;;;;15.10;11.23;;;;;;;8.96;100.00;99594.69;5050411;28;20494;-59
2023/01/03 06:23:57;;;;;;;14.52;11.13;;;;;;;8.92;100.00;99595.84;5047322;28;20024;-60
2023/01/03 06:26:23;;;;;;;14.52;10.82;;;;;;;9.00;100.00;99603.09;5045111;28;20038;-61
2023/01/03 06:28:50;;;;;;;16.95;10.75;;;;;;;8.72;100.00;99566.13;5042668;28;20044;-62
2023/01/03 06:31:16;;;;;;;16.13;11.40;;;;;;;8.69;100.00;99565.53;5040880;28;20063;-61
2023/01/03 06:33:42;;;;;;;16.00;11.07;;;;;;;8.74;100.00;99573.81;5048773;28;20032;-59
2023/01/03 06:36:33;;;;;;;14.52;11.40;;;;;;;9.02;100.00;99611.59;5049330;28;20722;-61
2023/01/03 06:38:59;;;;;;;15.98;10.48;;;;;;;9.01;100.00;99617.69;5042342;28;20032;-58
2023/01/03 06:41:26;;;;;;;16.48;10.85;;;;;;;9.04;100.00;99613.13;5032848;28;20749;-60
2023/01/03 06:43:53;;;;;;;14.70;11.25;;;;;;;9.08;100.00;99620.69;5030670;28;20505;-60
2023/01/03 06:54:33;;;;;;;15.20;11.05;;;;;;;9.03;100.00;99618.41;5046331;28;20071;-60
2023/01/03 06:56:59;;;;;;;16.23;12.18;;;;;;;9.01;100.00;99613.34;5028153;28;20426;-57
2023/01/03 06:59:25;;;;;;;15.23;11.32;;;;;;;9.04;100.00;99620.91;5043302;28;20051;-59
2023/01/03 07:01:51;;;;;;;16.05;11.95;;;;;;;8.89;100.00;99590.88;5045981;28;20028;-60
2023/01/03 07:04:17;;;;;;;18.60;11.40;;;;;;;9.10;100.00;99622.22;5047495;28;20035;-60
2023/01/03 07:06:43;;;;;;;15.63;12.20;;;;;;;9.13;100.00;99632.41;5047221;28;20036;-59
2023/01/03 07:09:09;;;;;;;17.05;12.50;;;;;;;9.14;100.00;99626.25;5031882;28;20135;-59
2023/01/03 07:11:35;;;;;;;19.15;12.40;;;;;;;8.94;100.00;99586.19;5046596;28;20391;-65
2023/01/03 07:14:02;;;;;;;16.45;12.02;;;;;;;9.16;100.00;99632.19;5029383;28;20119;-59
2023/01/03 07:16:47;;;;;;;15.73;11.52;;;;;;;9.16;100.00;99633.94;5043511;28;20582;-67
2023/01/03 07:19:15;;;;;;;18.95;11.98;;;;;;;8.92;100.00;99600.19;5041874;28;20795;-62
2023/01/03 07:21:41;;;;;;;16.17;11.82;;;;;;;9.14;100.00;99646.19;5043187;28;20041;-63
2023/01/03 07:24:08;;;;;;;18.65;12.65;;;;;;;8.83;100.00;99592.16;5051458;28;20046;-63
2023/01/03 07:26:34;;;;;;;16.13;11.95;;;;;;;9.17;100.00;99644.19;5028458;28;20035;-58
2023/01/03 07:29:02;;;;;;;16.52;11.98;;;;;;;8.98;100.00;99616.16;5046641;28;20433;-60
2023/01/03 07:31:28;;;;;;;16.63;12.07;;;;;;;9.19;100.00;99638.91;5040785;28;20028;-61
2023/01/03 07:33:53;;;;;;;16.23;12.25;;;;;;;9.20;100.00;99645.75;5061722;28;20108;-62
2023/01/03 07:36:20;;;;;;;17.23;12.43;;;;;;;9.19;100.00;99649.28;5045014;28;20066;-59
2023/01/03 07:38:45;;;;;;;17.20;12.05;;;;;;;9.17;100.00;99657.19;5067070;28;20032;-65
2023/01/03 07:41:12;;;;;;;15.18;11.82;;;;;;;9.11;100.00;99649.00;5034337;28;20032;-59
2023/01/03 07:43:40;;;;;;;16.33;11.65;;;;;;;9.18;100.00;99651.06;5032503;28;20474;-60
2023/01/03 07:46:08;;;;;;;16.40;11.32;;;;;;;9.04;100.00;99633.88;5032431;28;20039;-60
2023/01/03 07:48:34;;;;;;;16.40;12.02;;;;;;;9.07;100.00;99644.97;5047594;28;20029;-60
2023/01/03 07:51:00;;;;;;;14.88;10.80;;;;;;;9.06;100.00;99654.53;5031058;28;20503;-61
2023/01/03 07:53:26;;;;;;;14.90;10.85;;;;;;;9.07;100.00;99652.75;5029510;28;20025;-62
2023/01/03 07:55:51;;;;;;;14.48;10.95;;;;;;;9.06;100.00;99654.53;5037455;28;20056;-59
2023/01/03 07:58:17;;;;;;;12.40;9.77;;;;;;;8.78;100.00;99624.50;5063087;28;20048;-60
2023/01/03 08:00:42;;;;;;;13.05;10.48;;;;;;;8.96;100.00;99656.09;5066467;28;20028;-58
2023/01/03 08:03:08;;;;;;;13.27;9.52;;;;;;;8.99;100.00;99661.09;5047835;28;20430;-59
2023/01/03 08:05:34;;;;;;;14.98;10.57;;;;;;;9.04;100.00;99646.84;5064902;28;20627;-60
2023/01/03 08:08:03;;;;;;;14.55;10.35;;;;;;;8.74;100.00;99610.13;5048017;28;20104;-64
2023/01/03 08:13:16;;;;;;;13.35;10.23;;;;;;;9.02;100.00;99651.31;5061769;28;20379;-61
2023/01/03 08:15:53;;;;;;;13.63;10.68;;;;;;;9.02;100.00;99650.50;5036169;28;20600;-62
2023/01/03 08:18:21;;;;;;;13.15;9.98;;;;;;;9.10;100.00;99662.91;5028447;28;20037;-61
2023/01/03 08:20:47;;;;;;;14.57;11.07;;;;;;;9.04;100.00;99654.63;5023276;28;20139;-62
2023/01/03 08:23:13;;;;;;;13.85;10.82;;;;;;;9.04;100.00;99659.81;5045783;28;20199;-63
2023/01/03 08:25:39;;;;;;;15.32;11.48;;;;;;;8.82;100.00;99613.81;5065585;28;20051;-63
2023/01/03 08:28:06;;;;;;;17.67;12.00;;;;;;;9.09;100.00;99669.03;5034330;28;20044;-59
2023/01/03 08:30:31;;;;;;;17.13;12.10;;;;;;;9.10;100.00;99665.50;5039033;28;20110;-59
2023/01/03 08:33:01;;;;;;;15.80;11.55;;;;;;;9.09;100.00;99671.63;5064390;28;20824;-61
2023/01/03 08:35:30;;;;;;;23.85;13.20;;;;;;;9.10;100.00;99681.09;5062937;28;20398;-59
2023/01/03 08:37:57;;;;;;;13.88;10.73;;;;;;;9.11;100.00;99685.31;5046390;28;20054;-61
2023/01/03 08:40:23;;;;;;;15.07;11.05;;;;;;;8.84;100.00;99647.44;5046992;28;20021;-59
2023/01/03 08:42:48;;;;;;;13.75;10.20;;;;;;;9.03;100.00;99688.47;5044736;28;20025;-59
2023/01/03 08:45:16;;;;;;;13.57;10.35;;;;;;;9.02;100.00;99687.63;5028900;28;20027;-60
2023/01/03 08:47:42;;;;;;;15.13;10.70;;;;;;;9.03;100.00;99699.69;5046975;28;20546;-62
2023/01/03 08:50:08;;;;;;;13.63;10.80;;;;;;;9.00;100.00;99694.72;5045394;28;20032;-60
2023/01/03 08:52:34;;;;;;;13.85;10.55;;;;;;;8.86;100.00;99676.69;5047178;28;20545;-61
2023/01/03 08:55:18;;;;;;;15.68;10.65;;;;;;;9.01;100.00;99706.72;5045914;28;20016;-59
2023/01/03 08:57:44;;;;;;;14.40;10.48;;;;;;;8.98;100.00;99712.16;5043640;28;20110;-61
2023/01/03 09:00:10;;;;;;;14.30;10.77;;;;;;;9.00;100.00;99710.28;5065031;28;20094;-61
2023/01/03 09:02:35;;;;;;;14.07;11.32;;;;;;;9.03;100.00;99707.47;5050712;28;20032;-68
2023/01/03 09:05:01;;;;;;;14.25;10.32;;;;;;;9.02;100.00;99705.81;5064780;28;20371;-60
2023/01/03 09:07:26;;;;;;;16.63;10.95;;;;;;;9.10;100.00;99707.03;5039722;28;20029;-58
2023/01/03 09:09:52;;;;;;;15.02;10.43;;;;;;;9.04;100.00;99701.31;5065315;28;20635;-62
2023/01/03 09:12:17;;;;;;;15.05;10.73;;;;;;;9.15;100.00;99695.38;5061452;28;20025;-60
2023/01/03 09:14:43;;;;;;;16.13;10.60;;;;;;;9.15;100.00;99699.75;5062256;28;20095;-60
2023/01/03 09:17:08;;;;;;;14.60;10.48;;;;;;;9.12;100.00;99710.34;5042027;28;20048;-60
2023/01/03 09:19:34;;;;;;;13.52;9.93;;;;;;;9.14;100.00;99705.88;5065054;28;20032;-59
2023/01/03 09:21:59;;;;;;;12.98;10.10;;;;;;;9.11;100.00;99699.13;5063418;28;20024;-59
2023/01/03 09:24:24;;;;;;;13.13;10.23;;;;;;;9.10;100.00;99705.25;5047667;28;20032;-62
2023/01/03 09:26:50;;;;;;;14.35;10.13;;;;;;;8.89;100.00;99681.66;5062975;28;20032;-60
2023/01/03 09:29:15;;;;;;;14.30;9.60;;;;;;;9.14;100.00;99709.28;5049197;28;20029;-59
2023/01/03 09:31:41;;;;;;;13.55;10.00;;;;;;;8.90;100.00;99674.72;5046700;28;20078;-60
2023/01/03 09:34:06;;;;;;;13.25;9.32;;;;;;;8.92;100.00;99675.44;5060784;28;20415;-60
2023/01/03 09:36:33;;;;;;;14.00;9.70;;;;;;;9.15;100.00;99717.91;5045257;28;20481;-58
2023/01/03 09:38:59;;;;;;;13.88;10.13;;;;;;;9.19;100.00;99721.94;5045398;28;20219;-61
2023/01/03 09:41:26;;;;;;;12.52;9.68;;;;;;;9.18;100.00;99712.50;5027709;28;20560;-59
2023/01/03 09:44:02;;;;;;;15.25;8.98;;;;;;;9.00;100.00;99686.09;5060144;28;20032;-59
2023/01/03 09:46:28;;;;;;;11.30;8.85;;;;;;;9.17;100.00;99727.25;5041566;28;20040;-60
2023/01/03 09:48:54;;;;;;;12.60;9.40;;;;;;;9.19;100.00;99717.56;5040042;28;20052;-59
2023/01/03 10:05:50;;;;;;;12.30;8.88;;;;;;;9.01;100.00;99691.16;5061387;28;20548;-62
2023/01/03 10:08:31;;;;;;;10.38;8.20;;;;;;;9.21;100.00;99728.66;5041270;28;20021;-59
2023/01/03 10:11:03;;;;;;;11.95;8.70;;;;;;;9.27;100.00;99726.59;5039606;28;20286;-60
2023/01/03 10:13:48;;;;;;;10.70;8.45;;;;;;;9.01;100.00;99692.94;5027684;28;20656;-60
2023/01/03 10:16:16;;;;;;;10.77;8.23;;;;;;;9.29;100.00;99712.56;5042570;28;20032;-62
2023/01/03 10:19:12;;;;;;;11.93;8.93;;;;;;;9.37;100.00;99706.84;5057646;28;20560;-61
2023/01/03 10:22:07;;;;;;;11.07;8.55;;;;;;;9.40;100.00;99697.06;5047253;28;20043;-63
2023/01/03 10:24:42;;;;;;;12.50;8.60;;;;;;;9.30;100.00;99679.66;5062522;28;20133;-59
2023/01/03 10:27:19;;;;;;;10.60;7.85;;;;;;;9.34;100.00;99683.69;5045295;28;20225;-60
2023/01/03 10:29:47;;;;;;;10.57;7.85;;;;;;;9.28;100.00;99674.56;5044055;28;20035;-61
2023/01/03 10:32:31;;;;;;;11.13;8.32;;;;;;;9.33;100.00;99682.88;5044213;28;20040;-59
2023/01/03 10:35:26;;;;;;;11.27;8.70;;;;;;;9.34;100.00;99671.53;5062531;28;20040;-63
2023/01/03 10:37:53;;;;;;;11.48;8.00;;;;;;;9.33;100.00;99680.28;5062359;28;20036;-60
2023/01/03 10:40:19;;;;;;;11.07;7.68;;;;;;;9.34;100.00;99678.50;5060728;28;20418;-60
2023/01/03 10:42:44;;;;;;;11.10;8.50;;;;;;;9.28;100.00;99671.16;5041538;28;20016;-59
2023/01/03 10:45:19;;;;;;;12.45;8.88;;;;;;;9.11;100.00;99643.81;5038285;28;20116;-59
2023/01/03 10:47:57;;;;;;;14.35;8.73;;;;;;;9.35;100.00;99680.97;5023963;28;20128;-60
2023/01/03 10:50:24;;;;;;;12.25;8.90;;;;;;;9.09;100.00;99622.34;5061402;28;20662;-61
2023/01/03 10:52:59;;;;;;;12.38;9.30;;;;;;;9.31;100.00;99653.59;5028658;28;20035;-60
2023/01/03 10:55:25;;;;;;;11.50;8.48;;;;;;;9.42;100.00;99671.00;5048139;28;20482;-60
2023/01/03 10:57:51;;;;;;;12.25;9.32;;;;;;;9.50;100.00;99680.81;5035545;28;20032;-61
2023/01/03 11:00:23;;;;;;;13.95;9.05;;;;;;;9.52;100.00;99678.94;5067859;28;20027;-58
2023/01/03 11:02:49;;;;;;;12.32;9.52;;;;;;;9.48;100.00;99675.72;5048229;28;20631;-62
2023/01/03 11:05:17;;;;;;;12.48;10.15;;;;;;;9.49;100.00;99673.94;5024004;28;20060;-57
2023/01/03 11:07:44;;;;;;;13.82;9.68;;;;;;;9.46;100.00;99664.63;5032037;28;20112;-59
2023/01/03 11:10:17;;;;;;;12.65;10.13;;;;;;;9.52;100.00;99678.94;5028517;28;20044;-61
2023/01/03 11:12:43;;;;;;;13.27;9.93;;;;;;;9.43;100.00;99676.03;5030613;28;20043;-60
2023/01/03 11:15:19;;;;;;;12.80;8.65;;;;;;;9.37;100.00;99681.69;5048463;28;20029;-60
2023/01/03 11:18:01;;;;;;;11.98;8.88;;;;;;;9.32;100.00;99660.44;5047711;28;20381;-62
2023/01/03 11:20:51;;;;;;;14.57;9.93;;;;;;;9.42;100.00;99671.81;5031050;28;20155;-60
2023/01/03 11:23:23;;;;;;;11.55;8.82;;;;;;;9.42;100.00;99668.41;5048085;28;20060;-66
2023/01/03 11:26:17;;;;;;;12.43;9.52;;;;;;;9.55;100.00;99676.94;5064212;28;20029;-60
2023/01/03 11:28:48;;;;;;;12.15;9.18;;;;;;;9.52;100.00;99678.94;5043020;28;20098;-60
2023/01/03 11:31:30;;;;;;;10.43;8.25;;;;;;;9.45;100.00;99669.94;5039500;28;20025;-59
2023/01/03 11:34:18;;;;;;;12.40;8.15;;;;;;;9.49;100.00;99660.97;5063787;28;20572;-59
2023/01/03 11:36:49;;;;;;;11.27;8.77;;;;;;;9.50;100.00;99666.06;5046762;28;20108;-59
2023/01/03 11:39:33;;;;;;;11.15;8.75;;;;;;;9.54;100.00;99669.25;5066708;28;20033;-62
2023/01/03 11:42:05;;;;;;;11.50;8.40;;;;;;;9.57;100.00;99662.06;5061746;28;20024;-62
2023/01/03 11:44:40;;;;;;;11.98;9.43;;;;;;;9.62;100.00;99648.75;5065965;28;20094;-63
2023/01/03 11:47:29;;;;;;;12.68;9.23;;;;;;;9.66;100.00;99644.19;5027623;28;20025;-61
2023/01/03 11:50:10;;;;;;;12.48;9.73;;;;;;;9.70;100.00;99643.00;5028656;28;20028;-58
2023/01/03 11:52:54;;;;;;;13.85;9.88;;;;;;;9.76;100.00;99652.91;5039373;28;20048;-63
2023/01/03 11:55:41;;;;;;;12.55;9.65;;;;;;;9.66;100.00;99660.56;5031363;28;20040;-58
2023/01/03 11:58:19;;;;;;;12.07;9.55;;;;;;;9.56;100.00;99649.19;5045377;28;20056;-61
2023/01/03 12:01:04;;;;;;;12.18;9.88;;;;;;;9.52;100.00;99651.19;5060949;28;20023;-58
2023/01/03 12:04:01;;;;;;;11.75;9.25;;;;;;;9.51;100.00;99644.34;5050742;28;20475;-61
2023/01/03 12:06:47;;;;;;;14.82;9.68;;;;;;;9.57;100.00;99635.28;5019083;28;20197;-61
2023/01/03 12:09:27;;;;;;;13.90;10.40;;;;;;;9.59;100.00;99634.22;5044946;28;20499;-63
2023/01/03 12:12:10;;;;;;;12.63;9.98;;;;;;;9.63;100.00;99633.03;5024473;28;20085;-59
2023/01/03 12:14:55;;;;;;;13.25;9.55;;;;;;;9.63;100.00;99632.22;5063759;28;20392;-63
2023/01/03 12:17:44;;;;;;;13.25;9.80;;;;;;;9.62;100.00;99628.00;5027798;28;20028;-62
2023/01/03 12:20:14;;;;;;;14.23;10.38;;;;;;;9.55;100.00;99624.19;5045911;28;20119;-58
2023/01/03 12:22:43;;;;;;;15.32;11.07;;;;;;;9.35;100.00;99600.50;5053272;28;20116;-59
2023/01/03 12:25:20;;;;;;;15.68;11.30;;;;;;;9.57;100.00;99624.91;5045750;28;20086;-60
2023/01/03 12:27:50;;;;;;;16.25;12.82;;;;;;;9.44;100.00;99593.81;5045383;28;20035;-63
2023/01/03 12:30:25;;;;;;;16.83;11.75;;;;;;;9.61;100.00;99621.94;5042014;28;20054;-62
2023/01/03 12:32:59;;;;;;;14.57;11.43;;;;;;;9.68;100.00;99618.91;5063600;28;20051;-62
2023/01/03 12:35:24;;;;;;;15.85;11.23;;;;;;;9.45;100.00;99579.06;5044065;28;20047;-59
2023/01/03 12:37:50;;;;;;;15.15;11.57;;;;;;;9.76;100.00;99619.16;5044714;28;20474;-63
2023/01/03 12:40:33;;;;;;;15.50;11.95;;;;;;;9.53;100.00;99589.72;5027854;28;20035;-61
2023/01/03 12:43:19;;;;;;;16.35;12.20;;;;;;;9.73;100.00;99612.44;5026651;28;20664;-58